createdAt,value
2023-02-18T00:02:33.660Z,8.70
2023-02-18T00:06:35.875Z,8.60
2023-02-18T00:10:40.967Z,8.93
2023-02-18T00:14:42.341Z,7.57
2023-02-18T00:18:43.626Z,11.07
2023-02-18T00:22:44.879Z,9.03
2023-02-18T00:26:48.030Z,9.60
2023-02-18T00:30:49.322Z,9.00
2023-02-18T00:34:50.620Z,10.00
2023-02-18T00:38:55.243Z,8.00
2023-02-18T00:42:56.536Z,8.90
2023-02-18T00:46:57.799Z,8.30
2023-02-18T00:51:00.244Z,8.97
2023-02-18T00:55:01.724Z,8.80
2023-02-18T00:59:02.955Z,8.57
2023-02-18T01:03:06.693Z,7.27
2023-02-18T01:07:09.784Z,7.97
2023-02-18T01:11:12.648Z,7.40
2023-02-18T01:15:14.733Z,8.23
2023-02-18T01:19:16.097Z,7.10
2023-02-18T01:23:17.935Z,7.60
2023-02-18T01:27:19.283Z,7.90
2023-02-18T01:31:20.642Z,8.30
2023-02-18T01:35:22.927Z,7.67
2023-02-18T01:39:24.187Z,6.57
2023-02-18T01:43:25.520Z,6.50
2023-02-18T01:47:26.760Z,7.40
2023-02-18T01:51:35.299Z,7.60
2023-02-18T01:55:38.580Z,6.50
2023-02-18T01:59:43.604Z,4.80
2023-02-18T02:03:44.856Z,5.83
2023-02-18T02:07:49.223Z,4.20
2023-02-18T02:12:17.182Z,5.10
2023-02-18T02:16:24.865Z,7.37
2023-02-18T02:20:56.085Z,4.20
2023-02-18T02:25:18.105Z,4.90
2023-02-18T02:29:44.464Z,2.87
2023-02-18T02:34:01.323Z,3.20
2023-02-18T02:38:06.689Z,4.93
2023-02-18T02:42:45.981Z,4.10
2023-02-18T02:46:54.072Z,3.67
2023-02-18T02:50:59.191Z,4.33
2023-02-18T02:55:04.220Z,4.03
2023-02-18T02:59:08.640Z,3.63
2023-02-18T03:03:30.491Z,4.33
2023-02-18T03:07:41.654Z,4.40
2023-02-18T03:12:05.007Z,4.93
2023-02-18T03:16:15.766Z,5.47
2023-02-18T03:20:35.462Z,5.40
2023-02-18T03:24:46.229Z,5.80
2023-02-18T03:28:50.775Z,6.20
2023-02-18T03:32:55.940Z,4.90
2023-02-18T03:36:59.218Z,5.50
2023-02-18T03:41:00.518Z,4.80
2023-02-18T03:45:02.430Z,5.57
2023-02-18T03:49:04.446Z,5.03
2023-02-18T03:53:05.715Z,6.40
2023-02-18T03:57:06.944Z,6.10
2023-02-18T04:01:08.339Z,6.73
2023-02-18T04:05:09.907Z,6.67
2023-02-18T04:09:11.184Z,7.47
2023-02-18T04:13:12.651Z,6.50
2023-02-18T04:17:14.024Z,6.90
2023-02-18T04:21:15.346Z,7.07
2023-02-18T04:25:16.566Z,6.40
2023-02-18T04:29:17.829Z,6.47
2023-02-18T04:33:19.162Z,7.10
2023-02-18T04:37:20.418Z,7.20
2023-02-18T04:41:21.659Z,6.10
2023-02-18T04:45:56.961Z,6.77
2023-02-18T04:49:58.150Z,6.80
2023-02-18T04:53:59.304Z,7.20
2023-02-18T04:58:01.309Z,6.10
2023-02-18T05:02:02.641Z,4.50
2023-02-18T05:06:04.093Z,5.43
2023-02-18T05:10:06.562Z,5.33
2023-02-18T05:14:07.836Z,5.33
2023-02-18T05:18:08.980Z,5.60
2023-02-18T05:22:10.237Z,7.23
2023-02-18T05:26:11.518Z,6.20
2023-02-18T05:30:13.108Z,5.00
2023-02-18T05:34:14.310Z,5.73
2023-02-18T05:38:15.549Z,4.13
2023-02-18T05:42:16.609Z,5.07
2023-02-18T05:46:17.775Z,4.90
2023-02-18T05:50:19.168Z,5.60
2023-02-18T05:54:20.304Z,6.40
2023-02-18T05:58:21.455Z,5.43
2023-02-18T06:02:22.835Z,5.60
2023-02-18T06:06:24.157Z,6.00
2023-02-18T06:10:25.221Z,6.77
2023-02-18T06:14:26.380Z,6.40
2023-02-18T06:18:27.513Z,7.13
2023-02-18T06:22:28.688Z,8.07
2023-02-18T06:26:29.841Z,6.60
2023-02-18T06:30:30.974Z,6.20
2023-02-18T06:34:32.125Z,6.10
2023-02-18T06:38:34.975Z,6.50
2023-02-18T06:42:36.218Z,8.17
2023-02-18T06:46:37.398Z,5.13
2023-02-18T06:50:42.914Z,8.60
2023-02-18T06:54:43.607Z,9.40
2023-02-18T06:58:44.760Z,6.33
2023-02-18T07:02:45.922Z,7.20
2023-02-18T07:06:46.966Z,6.60
2023-02-18T07:10:48.717Z,6.67
2023-02-18T07:14:49.901Z,6.80
2023-02-18T07:18:51.063Z,6.73
2023-02-18T07:22:53.228Z,6.90
2023-02-18T07:26:54.395Z,5.87
2023-02-18T07:30:55.566Z,6.53
2023-02-18T07:34:56.674Z,8.97
2023-02-18T07:38:57.757Z,7.73
2023-02-18T07:42:58.808Z,6.33
2023-02-18T07:47:01.244Z,6.80
2023-02-18T07:51:08.478Z,8.83
2023-02-18T07:55:09.622Z,6.43
2023-02-18T07:59:12.511Z,6.23
2023-02-18T08:03:14.271Z,6.20
2023-02-18T08:07:16.930Z,7.27
2023-02-18T08:11:19.630Z,8.27
2023-02-18T08:15:21.050Z,7.57
2023-02-18T08:19:22.220Z,6.23
2023-02-18T08:23:25.079Z,6.83
2023-02-18T08:27:26.256Z,7.40
2023-02-18T08:31:30.120Z,8.10
2023-02-18T08:35:31.564Z,6.70
2023-02-18T08:39:38.513Z,7.27
2023-02-18T08:43:40.251Z,7.60
2023-02-18T08:48:17.250Z,7.47
2023-02-18T08:51:44.350Z,6.13
2023-02-18T08:55:45.525Z,7.23
2023-02-18T08:59:46.804Z,11.37
2023-02-18T09:03:48.091Z,6.50
2023-02-18T09:07:49.230Z,5.70
2023-02-18T09:11:50.690Z,5.77
2023-02-18T09:16:00.068Z,5.60
2023-02-18T09:20:01.526Z,5.20
2023-02-18T09:24:03.069Z,4.90
2023-02-18T09:28:04.228Z,4.73
2023-02-18T09:32:07.287Z,10.20
2023-02-18T09:36:08.973Z,3.67
2023-02-18T09:40:15.484Z,3.17
2023-02-18T09:44:26.864Z,3.03
2023-02-18T09:48:35.034Z,3.47
2023-02-18T09:52:39.011Z,4.00
2023-02-18T09:56:41.974Z,3.27
2023-02-18T10:00:47.733Z,7.50
2023-02-18T10:04:50.804Z,3.20
2023-02-18T10:08:54.147Z,7.40
2023-02-18T10:12:56.147Z,3.63
2023-02-18T10:16:58.814Z,5.13
2023-02-18T10:21:21.593Z,3.33
2023-02-18T10:25:24.370Z,4.57
2023-02-18T10:29:26.704Z,3.13
2023-02-18T10:33:48.498Z,3.13
2023-02-18T10:38:05.728Z,4.73
2023-02-18T10:42:23.061Z,3.40
2023-02-18T10:46:31.029Z,5.97
2023-02-18T10:50:41.198Z,3.00
2023-02-18T10:54:49.269Z,4.33
2023-02-18T10:58:51.721Z,3.77
2023-02-18T11:03:22.521Z,3.00
2023-02-18T11:07:33.384Z,5.97
2023-02-18T11:11:37.537Z,4.80
2023-02-18T11:16:02.595Z,3.83
2023-02-18T11:20:19.410Z,3.63
2023-02-18T11:24:20.665Z,3.40
2023-02-18T11:28:28.627Z,2.90
2023-02-18T11:32:32.377Z,2.93
2023-02-18T11:36:35.446Z,3.10
2023-02-18T11:40:36.715Z,4.50
2023-02-18T11:44:41.362Z,3.70
2023-02-18T11:48:42.819Z,4.83
2023-02-18T11:52:49.578Z,3.93
2023-02-18T11:57:00.782Z,3.27
2023-02-18T12:01:04.435Z,3.50
2023-02-18T12:05:15.438Z,3.77
2023-02-18T12:09:26.813Z,3.77
2023-02-18T12:13:49.539Z,2.80
2023-02-18T12:18:00.596Z,3.40
2023-02-18T12:22:25.397Z,5.23
2023-02-18T12:26:30.273Z,10.50
2023-02-18T12:31:01.275Z,12.33
2023-02-18T12:35:15.468Z,6.60
2023-02-18T12:39:23.433Z,8.43
2023-02-18T12:43:56.094Z,6.10
2023-02-18T12:48:17.968Z,3.37
2023-02-18T12:52:46.801Z,4.83
2023-02-18T12:57:17.886Z,3.70
2023-02-18T13:01:28.948Z,4.83
2023-02-18T13:05:39.494Z,4.53
2023-02-18T13:10:01.029Z,3.23
2023-02-18T13:14:18.100Z,5.77
2023-02-18T13:18:34.863Z,7.97
2023-02-18T13:22:36.745Z,4.83
2023-02-18T13:26:40.691Z,3.97
2023-02-18T13:30:51.698Z,4.37
2023-02-18T13:34:59.621Z,5.50
2023-02-18T13:39:07.005Z,4.10
2023-02-18T13:43:30.544Z,6.33
2023-02-18T13:47:43.366Z,6.80
2023-02-18T13:51:48.060Z,5.10
2023-02-18T13:56:02.346Z,4.00
2023-02-18T14:00:07.560Z,5.10
2023-02-18T14:04:37.435Z,6.13
2023-02-18T14:08:39.069Z,5.20
2023-02-18T14:12:44.015Z,5.17
2023-02-18T14:17:21.024Z,6.30
2023-02-18T14:21:29.016Z,5.63
2023-02-18T14:25:36.981Z,5.53
2023-02-18T14:29:38.934Z,3.97
2023-02-18T14:33:43.604Z,6.17
2023-02-18T14:38:08.844Z,6.20
2023-02-18T14:42:49.535Z,9.03
2023-02-18T14:47:09.729Z,8.10
2023-02-18T14:51:22.798Z,6.60
2023-02-18T14:55:30.464Z,7.10
2023-02-18T14:59:35.353Z,3.63
2023-02-18T15:03:39.492Z,5.40
2023-02-18T15:07:40.554Z,4.20
2023-02-18T15:11:48.087Z,4.50
2023-02-18T15:15:55.841Z,5.73
2023-02-18T15:20:01.134Z,5.37
2023-02-18T15:24:20.925Z,5.50
2023-02-18T15:28:28.635Z,4.73
2023-02-18T15:32:31.884Z,5.07
2023-02-18T15:36:32.940Z,3.97
2023-02-18T15:40:36.605Z,7.53
2023-02-18T15:44:38.233Z,3.20
2023-02-18T15:48:47.923Z,4.30
2023-02-18T15:52:50.976Z,4.73
2023-02-18T15:56:55.030Z,6.07
2023-02-18T16:01:05.582Z,4.03
2023-02-18T16:05:13.159Z,4.60
2023-02-18T16:09:18.273Z,5.33
2023-02-18T16:13:19.817Z,3.13
2023-02-18T16:17:22.654Z,4.30
2023-02-18T16:21:33.786Z,3.13
2023-02-18T16:25:47.989Z,3.53
2023-02-18T16:29:50.535Z,3.80
2023-02-18T16:33:51.922Z,5.50
2023-02-18T16:37:53.953Z,3.50
2023-02-18T16:41:55.096Z,3.23
2023-02-18T16:45:58.669Z,3.77
2023-02-18T16:49:59.878Z,6.33
2023-02-18T16:54:01.694Z,3.80
2023-02-18T16:58:02.860Z,5.30
2023-02-18T17:02:04.129Z,4.80
2023-02-18T17:06:05.356Z,4.17
2023-02-18T17:10:07.115Z,4.03
2023-02-18T17:14:12.071Z,4.83
2023-02-18T17:18:13.153Z,3.87
2023-02-18T17:22:14.401Z,4.67
2023-02-18T17:26:25.493Z,4.37
2023-02-18T17:30:27.486Z,4.60
2023-02-18T17:34:31.847Z,4.50
2023-02-18T17:38:33.813Z,5.40
2023-02-18T17:42:35.265Z,4.93
2023-02-18T17:46:36.882Z,4.50
2023-02-18T17:50:38.073Z,4.67
2023-02-18T17:54:39.216Z,3.80
2023-02-18T17:58:40.525Z,5.47
2023-02-18T18:02:41.676Z,4.10
2023-02-18T18:06:45.038Z,5.33
2023-02-18T18:10:50.304Z,8.73
2023-02-18T18:14:51.875Z,6.23
2023-02-18T18:18:53.026Z,5.40
2023-02-18T18:22:56.396Z,6.33
2023-02-18T18:26:57.652Z,3.63
2023-02-18T18:31:00.807Z,6.80
2023-02-18T18:35:01.978Z,3.80
2023-02-18T18:39:03.163Z,8.00
2023-02-18T18:43:04.921Z,5.27
2023-02-18T18:47:06.286Z,4.10
2023-02-18T18:51:13.184Z,7.03
2023-02-18T18:55:30.511Z,4.90
2023-02-18T18:59:31.791Z,4.70
2023-02-18T19:03:34.687Z,7.53
2023-02-18T19:07:35.937Z,6.07
2023-02-18T19:11:37.082Z,4.90
2023-02-18T19:15:38.904Z,4.40
2023-02-18T19:19:40.040Z,5.33
2023-02-18T19:23:41.181Z,5.67
2023-02-18T19:27:43.943Z,5.40
2023-02-18T19:31:45.270Z,6.83
2023-02-18T19:35:46.548Z,7.27
2023-02-18T19:39:47.795Z,5.93
2023-02-18T19:43:48.941Z,5.77
2023-02-18T19:47:58.260Z,5.83
2023-02-18T19:52:01.326Z,6.30
2023-02-18T19:56:04.718Z,6.00
2023-02-18T20:00:08.356Z,6.53
2023-02-18T20:04:10.527Z,6.50
2023-02-18T20:08:11.794Z,5.67
2023-02-18T20:12:14.468Z,6.03
2023-02-18T20:16:15.673Z,8.10
2023-02-18T20:20:18.229Z,6.23
2023-02-18T20:24:19.388Z,7.47
2023-02-18T20:28:20.593Z,7.13
2023-02-18T20:32:21.740Z,6.00
2023-02-18T20:36:23.981Z,9.03
2023-02-18T20:40:26.342Z,7.67
2023-02-18T20:44:27.714Z,7.00
2023-02-18T20:48:30.087Z,7.30
2023-02-18T20:52:34.662Z,7.57
2023-02-18T20:56:37.249Z,7.30
2023-02-18T21:00:38.402Z,7.63
2023-02-18T21:04:39.554Z,8.70
2023-02-18T21:08:42.201Z,8.67
2023-02-18T21:12:43.250Z,8.20
2023-02-18T21:16:44.409Z,10.23
2023-02-18T21:20:45.641Z,9.67
2023-02-18T21:24:50.927Z,8.43
2023-02-18T21:28:55.298Z,9.37
2023-02-18T21:32:57.670Z,10.20
2023-02-18T21:36:58.845Z,10.70
2023-02-18T21:41:00.110Z,12.37
2023-02-18T21:45:02.270Z,11.20
2023-02-18T21:49:05.027Z,12.07
2023-02-18T21:53:06.286Z,9.43
2023-02-18T21:57:11.045Z,10.57
2023-02-18T22:01:12.517Z,10.00
2023-02-18T22:05:14.021Z,10.57
2023-02-18T22:09:15.280Z,8.90
2023-02-18T22:13:16.452Z,9.77
2023-02-18T22:17:18.520Z,10.13
2023-02-18T22:21:21.115Z,13.70
2023-02-18T22:25:22.556Z,9.73
2023-02-18T22:29:23.719Z,11.83
2023-02-18T22:33:26.362Z,11.00
2023-02-18T22:37:27.515Z,14.17
2023-02-18T22:41:30.976Z,11.77
2023-02-18T22:45:36.824Z,12.70
2023-02-18T22:49:38.046Z,10.30
2023-02-18T22:53:40.615Z,11.40
2023-02-18T22:57:41.771Z,11.10
2023-02-18T23:01:48.047Z,12.30
2023-02-18T23:05:49.194Z,14.30
2023-02-18T23:09:50.247Z,10.60
2023-02-18T23:14:13.130Z,11.10
2023-02-18T23:18:14.288Z,14.27
2023-02-18T23:22:18.651Z,12.53
2023-02-18T23:26:22.207Z,11.80
2023-02-18T23:30:23.944Z,10.60
2023-02-18T23:34:25.150Z,11.03
2023-02-18T23:38:26.214Z,11.60
2023-02-18T23:42:27.420Z,11.10
2023-02-18T23:46:28.546Z,13.70
2023-02-18T23:50:29.717Z,11.13
2023-02-18T23:54:30.876Z,10.60
2023-02-18T23:58:33.570Z,13.00
